createdAt,value
2023-10-06T00:04:59.996Z,101375.50
2023-10-06T00:10:23.843Z,101386.03
2023-10-06T00:15:40.211Z,101390.50
2023-10-06T00:20:50.186Z,101390.56
2023-10-06T00:25:59.295Z,101397.56
2023-10-06T00:31:10.328Z,101411.53
2023-10-06T00:36:17.336Z,101404.59
2023-10-06T00:41:28.261Z,101418.47
2023-10-06T00:46:34.585Z,101419.38
2023-10-06T00:51:43.083Z,101422.81
2023-10-06T00:56:50.935Z,101437.66
2023-10-06T01:01:58.160Z,101444.66
2023-10-06T01:07:04.793Z,101448.13
2023-10-06T01:12:15.459Z,101446.38
2023-10-06T01:17:22.412Z,101451.66
2023-10-06T01:22:32.236Z,101453.47
2023-10-06T01:27:38.744Z,101457.84
2023-10-06T01:32:46.666Z,101463.13
2023-10-06T01:38:00.126Z,101459.63
2023-10-06T01:43:11.576Z,101475.44
2023-10-06T01:48:30.277Z,101477.28
2023-10-06T01:53:42.267Z,101473.00
2023-10-06T01:58:52.486Z,101482.63
2023-10-06T02:03:59.010Z,101481.75
2023-10-06T02:09:16.458Z,101484.34
2023-10-06T02:14:22.895Z,101482.69
2023-10-06T02:19:30.401Z,101482.72
2023-10-06T02:24:58.187Z,101485.38
2023-10-06T02:30:12.620Z,101489.81
2023-10-06T02:35:19.648Z,101495.09
2023-10-06T02:40:32.611Z,101506.41
2023-10-06T02:45:42.201Z,101511.69
2023-10-06T02:50:51.897Z,101511.69
2023-10-06T02:56:07.456Z,101517.00
2023-10-06T03:01:15.837Z,101518.78
2023-10-06T03:06:22.224Z,101521.47
2023-10-06T03:11:32.188Z,101528.50
2023-10-06T03:16:40.962Z,101536.31
2023-10-06T03:21:49.632Z,101534.63
2023-10-06T03:26:59.364Z,101532.06
2023-10-06T03:32:13.134Z,101540.81
2023-10-06T03:37:36.078Z,101542.59
2023-10-06T03:42:44.684Z,101548.66
2023-10-06T03:47:51.378Z,101558.19
2023-10-06T03:52:59.452Z,101560.78
2023-10-06T03:58:08.349Z,101557.31
2023-10-06T04:03:16.200Z,101566.94
2023-10-06T04:08:23.806Z,101579.09
2023-10-06T04:13:33.234Z,101572.13
2023-10-06T04:18:40.648Z,101587.84
2023-10-06T04:23:47.600Z,101587.84
2023-10-06T04:28:59.022Z,101585.25
2023-10-06T04:34:05.886Z,101594.81
2023-10-06T04:39:15.716Z,101585.28
2023-10-06T04:44:23.969Z,101592.19
2023-10-06T04:49:30.560Z,101589.66
2023-10-06T04:54:37.034Z,101588.78
2023-10-06T04:59:45.590Z,101599.22
2023-10-06T05:04:52.726Z,101599.22
2023-10-06T05:09:59.586Z,101602.72
2023-10-06T05:15:16.694Z,101597.50
2023-10-06T05:20:23.502Z,101613.19
2023-10-06T05:25:31.011Z,101619.25
2023-10-06T05:30:39.730Z,101630.56
2023-10-06T05:35:47.162Z,101640.16
2023-10-06T05:40:54.626Z,101639.31
2023-10-06T05:46:04.777Z,101645.38
2023-10-06T05:51:12.167Z,101641.88
2023-10-06T05:56:21.827Z,101650.59
2023-10-06T06:01:33.156Z,101656.69
2023-10-06T06:06:39.466Z,101660.16
2023-10-06T06:11:45.881Z,101664.53
2023-10-06T06:16:54.109Z,101661.06
2023-10-06T06:22:04.513Z,101660.97
2023-10-06T06:27:11.795Z,101669.69
2023-10-06T06:32:20.323Z,101676.66
2023-10-06T06:37:27.003Z,101674.00
2023-10-06T06:42:33.186Z,101674.00
2023-10-06T06:47:41.097Z,101678.34
2023-10-06T06:52:48.240Z,101670.47
2023-10-06T06:57:57.198Z,101684.41
2023-10-06T07:03:06.086Z,101694.81
2023-10-06T07:08:13.458Z,101694.84
2023-10-06T07:13:23.650Z,101687.91
2023-10-06T07:18:32.476Z,101694.00
2023-10-06T07:23:39.359Z,101695.69
2023-10-06T07:28:50.066Z,101707.91
2023-10-06T07:33:59.509Z,101704.41
2023-10-06T07:39:10.301Z,101716.56
2023-10-06T07:44:17.280Z,101716.53
2023-10-06T07:49:25.413Z,101702.59
2023-10-06T07:54:31.765Z,101706.06
2023-10-06T07:59:38.125Z,101710.41
2023-10-06T08:04:45.998Z,101706.03
2023-10-06T08:09:53.252Z,101708.66
2023-10-06T08:14:59.551Z,101711.25
2023-10-06T08:20:13.880Z,101720.88
2023-10-06T08:25:21.811Z,101719.09
2023-10-06T08:30:28.765Z,101719.06
2023-10-06T08:35:36.668Z,101720.75
2023-10-06T08:40:45.999Z,101717.25
2023-10-06T08:45:53.219Z,101711.13
2023-10-06T08:51:05.769Z,101706.72
2023-10-06T08:56:16.823Z,101703.22
2023-10-06T09:01:24.191Z,101693.59
2023-10-06T09:06:33.300Z,101693.56
2023-10-06T09:11:43.808Z,101687.34
2023-10-06T09:16:53.498Z,101689.06
2023-10-06T09:22:08.159Z,101689.00
2023-10-06T09:27:26.685Z,101692.44
2023-10-06T09:32:33.721Z,101692.38
2023-10-06T09:37:42.449Z,101684.47
2023-10-06T09:42:51.068Z,101683.50
2023-10-06T09:47:59.244Z,101686.97
2023-10-06T09:53:14.938Z,101671.22
2023-10-06T09:58:23.760Z,101669.38
2023-10-06T10:03:32.015Z,101656.19
2023-10-06T10:08:42.881Z,101648.34
2023-10-06T10:14:20.449Z,101651.78
2023-10-06T10:19:30.161Z,101650.00
2023-10-06T10:29:48.944Z,101648.13
2023-10-06T10:35:15.525Z,101649.75
2023-10-06T10:40:27.411Z,101651.47
2023-10-06T10:45:45.205Z,101651.34
2023-10-06T10:51:12.714Z,101643.41
2023-10-06T10:56:38.237Z,101634.63
2023-10-06T11:01:45.764Z,101617.00
2023-10-06T11:06:56.996Z,101612.56
2023-10-06T11:12:23.682Z,101605.50
2023-10-06T11:17:33.600Z,101585.34
2023-10-06T11:22:40.193Z,101578.16
2023-10-06T11:27:58.304Z,101564.03
2023-10-06T11:33:06.260Z,101559.38
2023-10-06T11:38:17.373Z,101548.66
2023-10-06T11:43:25.803Z,101549.34
2023-10-06T11:48:35.344Z,101534.47
2023-10-06T11:53:43.128Z,101530.75
2023-10-06T11:58:51.243Z,101525.41
2023-10-06T12:04:01.807Z,101520.00
2023-10-06T12:09:15.039Z,101501.53
2023-10-06T12:14:23.698Z,101480.41
2023-10-06T12:19:32.716Z,101476.81
2023-10-06T12:24:39.545Z,101478.44
2023-10-06T12:29:50.045Z,101469.63
2023-10-06T12:34:57.036Z,101445.81
2023-10-06T12:40:05.356Z,101440.50
2023-10-06T12:45:19.373Z,101434.19
2023-10-06T12:50:26.547Z,101427.00
2023-10-06T12:55:33.342Z,101413.66
2023-10-06T13:00:41.716Z,101403.09
2023-10-06T13:05:49.469Z,101398.69
2023-10-06T13:10:56.525Z,101402.13
2023-10-06T13:16:10.262Z,101402.97
2023-10-06T13:21:17.729Z,101379.31
2023-10-06T13:26:40.064Z,101386.19
2023-10-06T13:31:51.364Z,101357.31
2023-10-06T13:36:57.937Z,101357.34
2023-10-06T13:42:04.622Z,101353.81
2023-10-06T13:47:12.583Z,101351.81
2023-10-06T13:52:19.329Z,101363.03
2023-10-06T13:57:26.150Z,101343.81
2023-10-06T14:02:34.586Z,101330.72
2023-10-06T14:07:41.719Z,101330.66
2023-10-06T14:12:53.779Z,101323.75
2023-10-06T14:18:02.299Z,101328.94
2023-10-06T14:23:11.106Z,101312.25
2023-10-06T14:28:17.922Z,101303.53
2023-10-06T14:33:30.119Z,101297.34
2023-10-06T14:38:55.869Z,101284.25
2023-10-06T14:44:22.309Z,101264.97
2023-10-06T14:49:30.377Z,101255.31
2023-10-06T14:54:37.345Z,101251.75
2023-10-06T14:59:45.702Z,101234.28
2023-10-06T15:04:53.610Z,101232.66
2023-10-06T15:10:00.240Z,101244.13
2023-10-06T15:15:14.962Z,101228.44
2023-10-06T15:20:28.023Z,101222.41
2023-10-06T15:25:35.376Z,101216.31
2023-10-06T15:30:43.498Z,101198.88
2023-10-06T15:35:53.571Z,101184.97
2023-10-06T15:41:11.890Z,101192.09
2023-10-06T15:46:19.222Z,101185.28
2023-10-06T15:51:27.318Z,101188.00
2023-10-06T15:56:35.730Z,101180.28
2023-10-06T16:01:42.602Z,101175.97
2023-10-06T16:06:52.637Z,101165.47
2023-10-06T16:12:01.656Z,101161.13
2023-10-06T16:17:08.683Z,101139.34
2023-10-06T16:22:18.103Z,101137.63
2023-10-06T16:27:25.391Z,101126.31
2023-10-06T16:32:33.054Z,101131.59
2023-10-06T16:37:41.429Z,101122.06
2023-10-06T16:42:47.989Z,101111.56
2023-10-06T16:47:54.668Z,101123.03
2023-10-06T16:53:03.166Z,101111.66
2023-10-06T16:58:10.998Z,101099.47
2023-10-06T17:03:22.281Z,101077.63
2023-10-06T17:08:31.240Z,101075.09
2023-10-06T17:13:38.882Z,101062.03
2023-10-06T17:18:46.494Z,101043.69
2023-10-06T17:23:55.452Z,101038.44
2023-10-06T17:29:02.860Z,101037.59
2023-10-06T17:34:09.964Z,101025.41
2023-10-06T17:39:19.744Z,101009.75
2023-10-06T17:44:26.842Z,101004.59
2023-10-06T17:49:38.332Z,101001.19
2023-10-06T17:54:47.728Z,100982.00
2023-10-06T17:59:56.477Z,100972.41
2023-10-06T18:05:06.432Z,100963.63
2023-10-06T18:10:18.768Z,100947.88
2023-10-06T18:15:28.079Z,100967.09
2023-10-06T18:20:40.826Z,100955.69
2023-10-06T18:25:52.279Z,100945.19
2023-10-06T18:31:01.485Z,100937.28
2023-10-06T18:36:15.176Z,100925.88
2023-10-06T18:41:29.058Z,100927.56
2023-10-06T18:46:38.635Z,100911.03
2023-10-06T18:51:48.134Z,100897.84
2023-10-06T18:57:00.404Z,100886.50
2023-10-06T19:02:13.890Z,100889.13
2023-10-06T19:07:25.025Z,100882.97
2023-10-06T19:12:36.143Z,100882.97
2023-10-06T19:17:45.685Z,100876.00
2023-10-06T19:22:58.223Z,100866.38
2023-10-06T19:28:11.937Z,100858.50
2023-10-06T19:33:23.969Z,100837.50
2023-10-06T19:38:34.083Z,100838.34
2023-10-06T19:43:47.090Z,100841.03
2023-10-06T19:48:57.953Z,100830.56
2023-10-06T19:54:09.619Z,100817.38
2023-10-06T19:59:20.841Z,100827.94
2023-10-06T20:04:30.951Z,100822.72
2023-10-06T20:09:41.869Z,100827.97
2023-10-06T20:14:53.485Z,100812.38
2023-10-06T20:20:03.043Z,100808.16
2023-10-06T20:25:12.984Z,100808.22
2023-10-06T20:30:27.259Z,100798.69
2023-10-06T20:35:36.187Z,100796.84
2023-10-06T20:40:46.062Z,100804.78
2023-10-06T20:45:54.695Z,100797.84
2023-10-06T20:51:03.479Z,100798.69
2023-10-06T20:56:10.498Z,100780.34
2023-10-06T21:01:19.073Z,100780.31
2023-10-06T21:06:29.403Z,100758.41
2023-10-06T21:11:41.402Z,100749.81
2023-10-06T21:16:50.288Z,100771.63
2023-10-06T21:21:57.240Z,100759.44
2023-10-06T21:27:05.383Z,100743.63
2023-10-06T21:32:13.361Z,100741.16
2023-10-06T21:37:20.158Z,100726.28
2023-10-06T21:42:26.991Z,100725.44
2023-10-06T21:47:35.143Z,100714.03
2023-10-06T21:52:42.437Z,100702.69
2023-10-06T21:57:49.516Z,100685.31
2023-10-06T22:02:58.433Z,100680.97
2023-10-06T22:08:05.791Z,100670.47
2023-10-06T22:13:13.689Z,100660.84
2023-10-06T22:18:22.555Z,100651.25
2023-10-06T22:23:29.258Z,100643.41
2023-10-06T22:28:36.386Z,100616.31
2023-10-06T22:33:44.337Z,100606.75
2023-10-06T22:38:51.220Z,100603.19
2023-10-06T22:43:58.511Z,100591.03
2023-10-06T22:49:07.272Z,100581.41
2023-10-06T22:54:14.516Z,100572.75
2023-10-06T22:59:22.089Z,100554.41
2023-10-06T23:04:33.595Z,100543.91
2023-10-06T23:09:40.392Z,100528.09
2023-10-06T23:14:46.914Z,100515.91
2023-10-06T23:20:00.325Z,100494.94
2023-10-06T23:25:13.023Z,100470.50
2023-10-06T23:30:19.928Z,100462.63
2023-10-06T23:35:27.818Z,100447.81
2023-10-06T23:40:36.080Z,100431.22
2023-10-06T23:45:47.418Z,100431.22
2023-10-06T23:51:00.282Z,100417.19
2023-10-06T23:56:24.188Z,100415.44
